Weather at Clark Regional Airport

Public forecast

Using degrees Fahrenheit for public forecast. Weather courtesy of forecast.io.

Current aviation weather report (METAR) for Clark Regional Airport

2024/05/25 22:35 (retrieved 14 minutes ago)

KJVY 252235Z 35004KT 10SM FEW050 SCT055 SCT065 27/21 A2983 RMK AO2 CALM WIND RUNWAY 18 PREFERRED

Closest aviation forecast (TAF) to Clark Regional Airport

Closest forecast is Louisville Muhammad Ali International Airport, 11.5 nm (21.2 km) S.

2024/05/25 20:48 Ammendment (retrieved 2 hours ago)

TAF AMD KSDF 251945Z 2520/2624 02005KT P6SM VCSH BKN035 FM260000 VRB03KT P6SM SCT050 FM261200 15004KT P6SM BKN050